createdAt,value
2018-12-06T00:00:59.000Z,100105
2018-12-06T00:02:59.000Z,100102
2018-12-06T00:04:59.000Z,100106
2018-12-06T00:06:59.000Z,100103
2018-12-06T00:08:59.000Z,100096
2018-12-06T00:09:59.000Z,100093
2018-12-06T00:11:59.000Z,100093
2018-12-06T00:12:59.000Z,100093
2018-12-06T00:13:59.000Z,100093
2018-12-06T00:15:59.000Z,100092
2018-12-06T00:17:59.000Z,100093
2018-12-06T00:18:59.000Z,100093
2018-12-06T00:20:59.000Z,100091
2018-12-06T00:22:59.000Z,100086
2018-12-06T00:24:59.000Z,100086
2018-12-06T00:26:59.000Z,100087
2018-12-06T00:27:59.000Z,100087
2018-12-06T00:29:43.000Z,100077
2018-12-06T00:30:59.000Z,100086
2018-12-06T00:32:59.000Z,100082
2018-12-06T00:34:44.000Z,100079
2018-12-06T00:35:59.000Z,100079
2018-12-06T00:36:58.000Z,100079
2018-12-06T00:37:58.000Z,100077
2018-12-06T00:39:58.000Z,100082
2018-12-06T00:41:43.000Z,100080
2018-12-06T00:42:58.000Z,100079
2018-12-06T00:44:58.000Z,100086
2018-12-06T00:45:58.000Z,100085
2018-12-06T00:47:58.000Z,100088
2018-12-06T00:49:58.000Z,100087
2018-12-06T00:50:58.000Z,100084
2018-12-06T00:52:58.000Z,100087
2018-12-06T00:54:58.000Z,100088
2018-12-06T00:55:58.000Z,100084
2018-12-06T00:57:58.000Z,100082
2018-12-06T00:59:58.000Z,100081
2018-12-06T01:01:43.000Z,100081
2018-12-06T01:02:58.000Z,100080
2018-12-06T01:04:58.000Z,100089
2018-12-06T01:06:58.000Z,100085
2018-12-06T01:08:58.000Z,100088
2018-12-06T01:10:43.000Z,100090
2018-12-06T01:11:58.000Z,100094
2018-12-06T01:13:58.000Z,100087
2018-12-06T01:14:58.000Z,100092
2018-12-06T01:15:58.000Z,100095
2018-12-06T01:17:58.000Z,100092
2018-12-06T01:18:58.000Z,100087
2018-12-06T01:20:58.000Z,100091
2018-12-06T01:22:58.000Z,100095
2018-12-06T01:24:58.000Z,100092
2018-12-06T01:25:58.000Z,100091
2018-12-06T01:26:58.000Z,100090
2018-12-06T01:28:58.000Z,100099
2018-12-06T01:30:58.000Z,100090
2018-12-06T01:32:58.000Z,100088
2018-12-06T01:34:43.000Z,100087
2018-12-06T01:35:58.000Z,100091
2018-12-06T01:37:43.000Z,100093
2018-12-06T01:38:58.000Z,100088
2018-12-06T01:40:58.000Z,100091
2018-12-06T01:41:59.000Z,100087
2018-12-06T01:43:59.000Z,100084
2018-12-06T01:45:43.000Z,100076
2018-12-06T01:46:59.000Z,100079
2018-12-06T01:48:59.000Z,100074
2018-12-06T01:50:59.000Z,100075
2018-12-06T01:52:43.000Z,100078
2018-12-06T01:53:59.000Z,100067
2018-12-06T01:54:59.000Z,100069
2018-12-06T01:56:58.000Z,100074
2018-12-06T01:57:58.000Z,100069
2018-12-06T01:58:59.000Z,100067
2018-12-06T02:00:59.000Z,100064
2018-12-06T02:02:59.000Z,100064
2018-12-06T02:04:58.000Z,100059
2018-12-06T02:05:59.000Z,100059
2018-12-06T02:06:59.000Z,100058
2018-12-06T02:08:59.000Z,100058
2018-12-06T02:09:59.000Z,100060
2018-12-06T02:11:59.000Z,100060
2018-12-06T02:12:59.000Z,100067
2018-12-06T02:14:43.000Z,100061
2018-12-06T02:15:59.000Z,100061
2018-12-06T02:16:59.000Z,100060
2018-12-06T02:18:59.000Z,100067
2018-12-06T02:20:59.000Z,100064
2018-12-06T02:22:43.000Z,100068
2018-12-06T02:23:59.000Z,100063
2018-12-06T02:25:59.000Z,100051
2018-12-06T02:26:59.000Z,100053
2018-12-06T02:28:28.000Z,100054
2018-12-06T02:29:59.000Z,100050
2018-12-06T02:31:59.000Z,100040
2018-12-06T02:32:59.000Z,100049
2018-12-06T02:34:59.000Z,100048
2018-12-06T02:36:59.000Z,100055
2018-12-06T02:38:59.000Z,100051
2018-12-06T02:39:59.000Z,100050
2018-12-06T02:41:43.000Z,100046
2018-12-06T02:42:59.000Z,100050
2018-12-06T02:43:59.000Z,100052
2018-12-06T02:45:59.000Z,100056
2018-12-06T02:47:59.000Z,100052
2018-12-06T02:49:59.000Z,100058
2018-12-06T02:51:59.000Z,100059
2018-12-06T02:53:59.000Z,100055
2018-12-06T02:54:59.000Z,100058
2018-12-06T02:56:59.000Z,100049
2018-12-06T02:58:59.000Z,100049
2018-12-06T03:00:59.000Z,100049
2018-12-06T03:01:59.000Z,100044
2018-12-06T03:03:59.000Z,100044
2018-12-06T03:04:59.000Z,100050
2018-12-06T03:06:59.000Z,100040
2018-12-06T03:08:59.000Z,100043
2018-12-06T03:10:59.000Z,100046
2018-12-06T03:12:59.000Z,100039
2018-12-06T03:14:59.000Z,100046
2018-12-06T03:16:44.000Z,100044
2018-12-06T03:17:59.000Z,100044
2018-12-06T03:18:59.000Z,100041
2018-12-06T03:20:59.000Z,100048
2018-12-06T03:21:59.000Z,100047
2018-12-06T03:23:59.000Z,100043
2018-12-06T03:24:59.000Z,100043
2018-12-06T03:26:59.000Z,100046
2018-12-06T03:28:59.000Z,100035
2018-12-06T03:30:59.000Z,100043
2018-12-06T03:32:59.000Z,100046
2018-12-06T03:34:44.000Z,100052
2018-12-06T03:35:59.000Z,100050
2018-12-06T03:36:59.000Z,100049
2018-12-06T03:38:59.000Z,100050
2018-12-06T03:40:59.000Z,100055
2018-12-06T03:41:59.000Z,100055
2018-12-06T03:43:59.000Z,100059
2018-12-06T03:45:59.000Z,100053
2018-12-06T03:47:59.000Z,100055
2018-12-06T03:48:58.000Z,100055
2018-12-06T03:50:43.000Z,100054
2018-12-06T03:51:58.000Z,100063
2018-12-06T03:53:58.000Z,100060
2018-12-06T03:55:58.000Z,100054
2018-12-06T03:57:28.000Z,100056
2018-12-06T03:58:58.000Z,100061
2018-12-06T03:59:58.000Z,100054
2018-12-06T04:01:58.000Z,100054
2018-12-06T04:03:58.000Z,100055
2018-12-06T04:04:58.000Z,100056
2018-12-06T04:06:58.000Z,100052
2018-12-06T04:08:58.000Z,100056
2018-12-06T04:09:58.000Z,100050
2018-12-06T04:11:58.000Z,100049
2018-12-06T04:13:58.000Z,100045
2018-12-06T04:15:43.000Z,100041
2018-12-06T04:16:58.000Z,100049
2018-12-06T04:18:43.000Z,100051
2018-12-06T04:19:43.000Z,100057
2018-12-06T04:20:58.000Z,100059
2018-12-06T04:22:43.000Z,100051
2018-12-06T04:23:58.000Z,100055
2018-12-06T04:24:58.000Z,100060
2018-12-06T04:26:58.000Z,100052
2018-12-06T04:27:58.000Z,100055
2018-12-06T04:29:58.000Z,100049
2018-12-06T04:31:58.000Z,100044
2018-12-06T04:33:58.000Z,100042
2018-12-06T04:35:58.000Z,100052
2018-12-06T04:36:58.000Z,100049
2018-12-06T04:38:58.000Z,100050
2018-12-06T04:40:58.000Z,100048
2018-12-06T04:42:58.000Z,100049
2018-12-06T04:44:58.000Z,100052
2018-12-06T04:45:58.000Z,100058
2018-12-06T04:47:58.000Z,100054
2018-12-06T04:49:58.000Z,100056
2018-12-06T04:51:58.000Z,100055
2018-12-06T04:53:58.000Z,100056
2018-12-06T04:54:58.000Z,100060
2018-12-06T04:55:58.000Z,100057
2018-12-06T04:56:58.000Z,100065
2018-12-06T04:58:58.000Z,100067
2018-12-06T05:00:58.000Z,100071
2018-12-06T05:01:58.000Z,100068
2018-12-06T05:02:58.000Z,100071
2018-12-06T05:03:58.000Z,100074
2018-12-06T05:04:58.000Z,100070
2018-12-06T05:06:58.000Z,100068
2018-12-06T05:07:58.000Z,100071
2018-12-06T05:08:58.000Z,100072
2018-12-06T05:10:58.000Z,100062
2018-12-06T05:11:58.000Z,100061
2018-12-06T05:13:58.000Z,100072
2018-12-06T05:15:58.000Z,100080
2018-12-06T05:17:58.000Z,100083
2018-12-06T05:19:43.000Z,100088
2018-12-06T05:20:58.000Z,100089
2018-12-06T05:22:58.000Z,100091
2018-12-06T05:24:58.000Z,100085
2018-12-06T05:26:58.000Z,100095
2018-12-06T05:28:58.000Z,100094
2018-12-06T05:30:58.000Z,100096
2018-12-06T05:32:58.000Z,100097
2018-12-06T05:34:58.000Z,100097
2018-12-06T05:36:58.000Z,100094
2018-12-06T05:38:58.000Z,100102
2018-12-06T05:40:58.000Z,100110
2018-12-06T05:41:58.000Z,100112
2018-12-06T05:42:58.000Z,100108
2018-12-06T05:44:43.000Z,100112
2018-12-06T05:45:58.000Z,100115
2018-12-06T05:47:58.000Z,100108
2018-12-06T05:48:58.000Z,100110
2018-12-06T05:50:43.000Z,100107
2018-12-06T05:51:58.000Z,100114
2018-12-06T05:53:58.000Z,100111
2018-12-06T05:55:58.000Z,100120
2018-12-06T05:57:58.000Z,100124
2018-12-06T05:59:58.000Z,100122
2018-12-06T06:01:58.000Z,100130
2018-12-06T06:02:58.000Z,100134
2018-12-06T06:03:58.000Z,100136
2018-12-06T06:05:58.000Z,100137
2018-12-06T06:07:58.000Z,100144
2018-12-06T06:09:58.000Z,100149
2018-12-06T06:11:58.000Z,100154
2018-12-06T06:13:28.000Z,100161
2018-12-06T06:14:58.000Z,100158
2018-12-06T06:16:58.000Z,100157
2018-12-06T06:17:58.000Z,100160
2018-12-06T06:19:58.000Z,100157
2018-12-06T06:20:58.000Z,100159
2018-12-06T06:22:58.000Z,100150
2018-12-06T06:23:58.000Z,100148
2018-12-06T06:25:43.000Z,100142
2018-12-06T06:26:58.000Z,100141
2018-12-06T06:27:58.000Z,100140
2018-12-06T06:28:58.000Z,100140
2018-12-06T06:30:58.000Z,100145
2018-12-06T06:32:43.000Z,100131
2018-12-06T06:34:58.000Z,100129
2018-12-06T06:36:43.000Z,100132
2018-12-06T06:37:58.000Z,100142
2018-12-06T06:39:58.000Z,100140
2018-12-06T06:41:58.000Z,100141
2018-12-06T06:42:58.000Z,100145
2018-12-06T06:44:43.000Z,100143
2018-12-06T06:45:58.000Z,100137
2018-12-06T06:47:58.000Z,100147
2018-12-06T06:49:58.000Z,100146
2018-12-06T06:51:58.000Z,100153
2018-12-06T06:52:58.000Z,100155
2018-12-06T06:54:58.000Z,100164
2018-12-06T06:55:58.000Z,100169
2018-12-06T06:57:58.000Z,100170
2018-12-06T06:59:58.000Z,100179
2018-12-06T07:01:58.000Z,100189
2018-12-06T07:03:43.000Z,100196
2018-12-06T07:04:58.000Z,100201
2018-12-06T07:06:43.000Z,100200
2018-12-06T07:07:58.000Z,100207
2018-12-06T07:08:58.000Z,100206
2018-12-06T07:09:58.000Z,100206
2018-12-06T07:11:58.000Z,100216
2018-12-06T07:12:58.000Z,100225
2018-12-06T07:14:58.000Z,100224
2018-12-06T07:15:58.000Z,100235
2018-12-06T07:16:58.000Z,100259
2018-12-06T07:18:58.000Z,100237
2018-12-06T07:19:58.000Z,100241
2018-12-06T07:21:58.000Z,100244
2018-12-06T07:23:58.000Z,100247
2018-12-06T07:25:43.000Z,100245
2018-12-06T07:27:58.000Z,100243
2018-12-06T07:28:58.000Z,100236
2018-12-06T07:29:58.000Z,100238
2018-12-06T07:31:43.000Z,100236
2018-12-06T07:32:58.000Z,100243
2018-12-06T07:33:58.000Z,100243
2018-12-06T07:35:58.000Z,100235
2018-12-06T07:37:58.000Z,100246
2018-12-06T07:39:58.000Z,100244
2018-12-06T07:41:58.000Z,100258
2018-12-06T07:42:58.000Z,100252
2018-12-06T07:44:43.000Z,100258
2018-12-06T07:45:58.000Z,100263
2018-12-06T07:47:58.000Z,100259
2018-12-06T07:49:58.000Z,100255
2018-12-06T07:50:58.000Z,100262
2018-12-06T07:52:58.000Z,100258
2018-12-06T07:54:58.000Z,100262
2018-12-06T07:56:58.000Z,100263
2018-12-06T07:58:58.000Z,100268
2018-12-06T08:36:01.000Z,100273
2018-12-06T08:37:46.000Z,100277
2018-12-06T08:39:46.000Z,100266
2018-12-06T08:41:46.000Z,100263
2018-12-06T08:43:31.000Z,100255
2018-12-06T08:45:46.000Z,100259
2018-12-06T08:46:46.000Z,100264
2018-12-06T08:47:46.000Z,100263
2018-12-06T08:49:46.000Z,100265
2018-12-06T08:50:46.000Z,100261
2018-12-06T08:52:46.000Z,100266
2018-12-06T08:54:31.000Z,100263
2018-12-06T08:55:46.000Z,100274
2018-12-06T08:57:31.000Z,100280
2018-12-06T08:58:46.000Z,100277
2018-12-06T09:00:46.000Z,100285
2018-12-06T09:01:46.000Z,100283
2018-12-06T09:03:46.000Z,100284
2018-12-06T09:05:46.000Z,100290
2018-12-06T09:07:46.000Z,100291
2018-12-06T09:09:46.000Z,100294
2018-12-06T09:11:46.000Z,100295
2018-12-06T09:13:46.000Z,100306
2018-12-06T09:15:46.000Z,100301
2018-12-06T09:16:46.000Z,100309
2018-12-06T09:18:46.000Z,100307
2018-12-06T09:20:46.000Z,100297
2018-12-06T09:22:46.000Z,100297
2018-12-06T09:24:46.000Z,100304
2018-12-06T09:26:46.000Z,100304
2018-12-06T09:28:46.000Z,100293
2018-12-06T09:29:46.000Z,100294
2018-12-06T09:31:46.000Z,100298
2018-12-06T09:32:46.000Z,100300
2018-12-06T09:33:46.000Z,100297
2018-12-06T09:35:46.000Z,100300
2018-12-06T09:37:46.000Z,100297
2018-12-06T09:39:46.000Z,100286
2018-12-06T09:41:31.000Z,100290
2018-12-06T09:42:46.000Z,100294
2018-12-06T09:44:46.000Z,100294
2018-12-06T09:46:46.000Z,100293
2018-12-06T09:48:31.000Z,100305
2018-12-06T09:49:31.000Z,100299
2018-12-06T09:51:46.000Z,100297
2018-12-06T09:52:46.000Z,100295
2018-12-06T09:54:31.000Z,100298
2018-12-06T09:55:46.000Z,100302
2018-12-06T09:57:46.000Z,100306
2018-12-06T09:59:46.000Z,100302
2018-12-06T10:01:46.000Z,100291
2018-12-06T10:03:46.000Z,100286
2018-12-06T10:05:16.000Z,100286
2018-12-06T10:06:46.000Z,100292
2018-12-06T10:07:46.000Z,100294
2018-12-06T10:09:46.000Z,100286
2018-12-06T10:10:46.000Z,100289
2018-12-06T10:12:46.000Z,100286
2018-12-06T10:14:46.000Z,100294
2018-12-06T10:16:46.000Z,100304
2018-12-06T10:17:46.000Z,100309
2018-12-06T10:18:46.000Z,100304
2018-12-06T10:20:46.000Z,100313
2018-12-06T10:22:31.000Z,100305
2018-12-06T10:23:46.000Z,100302
2018-12-06T10:25:46.000Z,100317
2018-12-06T10:26:46.000Z,100314
2018-12-06T11:05:05.000Z,100317
2018-12-06T11:07:04.000Z,100327
2018-12-06T11:08:04.000Z,100326
2018-12-06T11:10:04.000Z,100324
2018-12-06T11:12:05.000Z,100316
2018-12-06T11:13:49.000Z,100306
2018-12-06T11:15:05.000Z,100305
2018-12-06T11:16:49.000Z,100312
2018-12-06T11:19:04.000Z,100306
2018-12-06T11:20:04.000Z,100309
2018-12-06T11:22:04.000Z,100309
2018-12-06T11:23:05.000Z,100300
2018-12-06T11:25:05.000Z,100301
2018-12-06T11:26:05.000Z,100304
2018-12-06T11:28:04.000Z,100298
2018-12-06T11:29:04.000Z,100304
2018-12-06T11:30:50.000Z,100307
2018-12-06T11:32:04.000Z,100308
2018-12-06T11:34:05.000Z,100304
2018-12-06T11:35:50.000Z,100294
2018-12-06T11:38:04.000Z,100296
2018-12-06T11:40:04.000Z,100305
2018-12-06T11:41:35.000Z,100299
2018-12-06T11:43:04.000Z,100302
2018-12-06T11:44:04.000Z,100299
2018-12-06T11:45:49.000Z,100306
2018-12-06T11:47:05.000Z,100306
2018-12-06T11:48:05.000Z,100309
2018-12-06T11:50:04.000Z,100299
2018-12-06T11:51:05.000Z,100307
2018-12-06T11:53:05.000Z,100311
2018-12-06T11:54:49.000Z,100321
2018-12-06T11:56:04.000Z,100320
2018-12-06T11:57:04.000Z,100327
2018-12-06T11:58:34.000Z,100325
2018-12-06T12:00:05.000Z,100332
2018-12-06T12:01:49.000Z,100326
2018-12-06T12:03:05.000Z,100332
2018-12-06T12:13:22.000Z,100343
2018-12-06T12:14:52.000Z,100339
2018-12-06T12:16:08.000Z,100333
2018-12-06T12:18:08.000Z,100331
2018-12-06T12:19:08.000Z,100326
2018-12-06T12:20:08.000Z,100327
2018-12-06T12:22:08.000Z,100321
2018-12-06T12:23:53.000Z,100351
2018-12-06T12:25:08.000Z,100335
2018-12-06T12:27:08.000Z,100343
2018-12-06T12:29:08.000Z,100336
2018-12-06T12:30:08.000Z,100344
2018-12-06T12:32:08.000Z,100337
2018-12-06T12:34:08.000Z,100328
2018-12-06T12:36:08.000Z,100334
2018-12-06T12:38:08.000Z,100334
2018-12-06T12:40:08.000Z,100334
2018-12-06T12:42:08.000Z,100343
2018-12-06T12:43:52.000Z,100336
2018-12-06T12:45:08.000Z,100338
2018-12-06T12:47:08.000Z,100337
2018-12-06T12:48:08.000Z,100337
2018-12-06T12:49:08.000Z,100336
2018-12-06T12:51:08.000Z,100349
2018-12-06T12:52:08.000Z,100341
2018-12-06T12:54:08.000Z,100340
2018-12-06T12:56:08.000Z,100344
2018-12-06T12:57:08.000Z,100340
2018-12-06T12:59:08.000Z,100354
2018-12-06T13:01:08.000Z,100348
2018-12-06T13:03:08.000Z,100336
2018-12-06T13:04:08.000Z,100329
2018-12-06T13:06:08.000Z,100323
2018-12-06T13:08:08.000Z,100332
2018-12-06T13:09:08.000Z,100324
2018-12-06T13:11:08.000Z,100333
2018-12-06T13:13:08.000Z,100340
2018-12-06T13:14:08.000Z,100338
2018-12-06T13:15:08.000Z,100344
2018-12-06T13:16:08.000Z,100337
2018-12-06T13:18:07.000Z,100327
2018-12-06T13:19:07.000Z,100327
2018-12-06T13:21:07.000Z,100326
2018-12-06T13:22:07.000Z,100328
2018-12-06T13:24:07.000Z,100328
2018-12-06T13:26:07.000Z,100328
2018-12-06T13:28:07.000Z,100328
2018-12-06T13:30:07.000Z,100328
2018-12-06T13:31:52.000Z,100323
2018-12-06T13:33:07.000Z,100330
2018-12-06T13:34:52.000Z,100333
2018-12-06T13:37:07.000Z,100330
2018-12-06T13:38:07.000Z,100330
2018-12-06T13:39:07.000Z,100331
2018-12-06T13:41:07.000Z,100326
2018-12-06T13:43:07.000Z,100328
2018-12-06T13:45:07.000Z,100323
2018-12-06T13:47:07.000Z,100332
2018-12-06T13:49:07.000Z,100330
2018-12-06T13:50:52.000Z,100322
2018-12-06T13:51:52.000Z,100320
2018-12-06T13:53:07.000Z,100323
2018-12-06T13:55:07.000Z,100325
2018-12-06T13:57:07.000Z,100318
2018-12-06T13:59:07.000Z,100328
2018-12-06T14:00:37.000Z,100324
2018-12-06T14:01:52.000Z,100320
2018-12-06T14:03:07.000Z,100317
2018-12-06T14:04:07.000Z,100319
2018-12-06T14:05:07.000Z,100321
2018-12-06T14:07:07.000Z,100317
2018-12-06T14:08:37.000Z,100325
2018-12-06T14:10:07.000Z,100321
2018-12-06T14:11:07.000Z,100327
2018-12-06T14:13:07.000Z,100328
2018-12-06T14:15:07.000Z,100330
2018-12-06T14:16:07.000Z,100324
2018-12-06T14:18:07.000Z,100319
2018-12-06T14:20:07.000Z,100326
2018-12-06T14:21:07.000Z,100330
2018-12-06T14:23:07.000Z,100338
2018-12-06T14:24:07.000Z,100332
2018-12-06T14:26:07.000Z,100332
2018-12-06T14:28:07.000Z,100331
2018-12-06T14:30:07.000Z,100330
2018-12-06T14:32:07.000Z,100327
2018-12-06T14:33:52.000Z,100331
2018-12-06T14:34:52.000Z,100325
2018-12-06T14:36:52.000Z,100328
2018-12-06T14:39:07.000Z,100332
2018-12-06T14:40:07.000Z,100332
2018-12-06T14:42:07.000Z,100332
2018-12-06T14:43:07.000Z,100329
2018-12-06T14:45:07.000Z,100339
2018-12-06T14:46:52.000Z,100341
2018-12-06T14:48:07.000Z,100343
2018-12-06T14:49:52.000Z,100347
2018-12-06T14:51:07.000Z,100338
2018-12-06T14:52:52.000Z,100339
2018-12-06T14:54:07.000Z,100358
2018-12-06T14:55:07.000Z,100347
2018-12-06T14:57:07.000Z,100338
2018-12-06T14:58:07.000Z,100337
2018-12-06T14:59:52.000Z,100342
2018-12-06T15:01:07.000Z,100336
2018-12-06T15:02:07.000Z,100345
2018-12-06T15:04:07.000Z,100344
2018-12-06T15:06:07.000Z,100351
2018-12-06T15:07:52.000Z,100353
2018-12-06T15:09:07.000Z,100353
2018-12-06T15:10:07.000Z,100347
2018-12-06T15:12:07.000Z,100350
2018-12-06T15:13:07.000Z,100348
2018-12-06T15:15:07.000Z,100339
2018-12-06T15:17:07.000Z,100334
2018-12-06T15:19:07.000Z,100337
2018-12-06T15:21:07.000Z,100337
2018-12-06T15:22:52.000Z,100328
2018-12-06T15:24:07.000Z,100328
2018-12-06T15:25:07.000Z,100322
2018-12-06T15:27:07.000Z,100321
2018-12-06T15:29:07.000Z,100328
2018-12-06T15:30:07.000Z,100331
2018-12-06T15:31:07.000Z,100325
2018-12-06T15:33:07.000Z,100333
2018-12-06T15:34:07.000Z,100324
2018-12-06T15:36:07.000Z,100330
2018-12-06T15:38:07.000Z,100322
2018-12-06T15:40:07.000Z,100319
2018-12-06T15:43:14.000Z,100328
2018-12-06T15:45:14.000Z,100322
2018-12-06T15:46:14.000Z,100327
2018-12-06T15:48:14.000Z,100327
2018-12-06T15:50:14.000Z,100326
2018-12-06T15:51:14.000Z,100326
2018-12-06T15:52:14.000Z,100327
2018-12-06T15:53:59.000Z,100325
2018-12-06T15:55:58.000Z,100317
2018-12-06T15:57:14.000Z,100322
2018-12-06T15:58:58.000Z,100317
2018-12-06T16:00:14.000Z,100324
2018-12-06T16:01:14.000Z,100316
2018-12-06T16:02:14.000Z,100332
2018-12-06T16:04:14.000Z,100334
2018-12-06T16:05:14.000Z,100334
2018-12-06T16:06:14.000Z,100329
2018-12-06T16:08:14.000Z,100326
2018-12-06T16:09:14.000Z,100325
2018-12-06T16:11:14.000Z,100317
2018-12-06T16:13:14.000Z,100314
2018-12-06T16:14:58.000Z,100310
2018-12-06T16:16:14.000Z,100316
2018-12-06T16:17:14.000Z,100312
2018-12-06T16:19:14.000Z,100318
2018-12-06T16:20:14.000Z,100317
2018-12-06T16:22:14.000Z,100308
2018-12-06T16:23:14.000Z,100312
2018-12-06T16:24:14.000Z,100318
2018-12-06T16:26:14.000Z,100310
2018-12-06T16:28:14.000Z,100323
2018-12-06T16:29:44.000Z,100313
2018-12-06T16:31:14.000Z,100311
2018-12-06T16:32:14.000Z,100307
2018-12-06T16:33:14.000Z,100303
2018-12-06T16:35:14.000Z,100302
2018-12-06T16:37:14.000Z,100298
2018-12-06T16:38:14.000Z,100302
2018-12-06T16:39:14.000Z,100302
2018-12-06T16:41:14.000Z,100301
2018-12-06T16:43:14.000Z,100302
2018-12-06T16:45:14.000Z,100303
2018-12-06T16:46:14.000Z,100295
2018-12-06T16:47:43.000Z,100298
2018-12-06T16:49:14.000Z,100301
2018-12-06T16:51:14.000Z,100296
2018-12-06T16:53:14.000Z,100297
2018-12-06T16:55:14.000Z,100310
2018-12-06T16:57:14.000Z,100297
2018-12-06T16:59:14.000Z,100293
2018-12-06T17:01:14.000Z,100302
2018-12-06T17:03:14.000Z,100301
2018-12-06T17:04:14.000Z,100306
2018-12-06T17:06:14.000Z,100301
2018-12-06T17:08:14.000Z,100301
2018-12-06T17:10:14.000Z,100295
2018-12-06T17:11:59.000Z,100295
2018-12-06T17:13:14.000Z,100298
2018-12-06T17:15:14.000Z,100303
2018-12-06T17:16:14.000Z,100305
2018-12-06T17:18:14.000Z,100308
2018-12-06T17:20:14.000Z,100309
2018-12-06T17:22:14.000Z,100299
2018-12-06T17:24:14.000Z,100292
2018-12-06T17:26:14.000Z,100298
2018-12-06T17:27:59.000Z,100298
2018-12-06T17:29:14.000Z,100298
2018-12-06T17:31:14.000Z,100295
2018-12-06T17:32:14.000Z,100291
2018-12-06T17:34:14.000Z,100296
2018-12-06T17:36:14.000Z,100300
2018-12-06T17:38:14.000Z,100294
2018-12-06T17:40:14.000Z,100296
2018-12-06T17:42:14.000Z,100293
2018-12-06T17:43:14.000Z,100291
2018-12-06T17:44:59.000Z,100292
2018-12-06T17:46:14.000Z,100289
2018-12-06T17:47:14.000Z,100280
2018-12-06T17:49:14.000Z,100287
2018-12-06T17:51:14.000Z,100283
2018-12-06T17:53:14.000Z,100283
2018-12-06T17:55:14.000Z,100279
2018-12-06T17:56:14.000Z,100273
2018-12-06T17:57:44.000Z,100278
2018-12-06T17:59:14.000Z,100280
2018-12-06T18:00:59.000Z,100287
2018-12-06T18:02:14.000Z,100283
2018-12-06T18:03:14.000Z,100286
2018-12-06T18:05:14.000Z,100284
2018-12-06T18:06:14.000Z,100282
2018-12-06T18:07:59.000Z,100282
2018-12-06T18:09:14.000Z,100284
2018-12-06T18:10:14.000Z,100283
2018-12-06T18:12:14.000Z,100285
2018-12-06T18:13:14.000Z,100279
2018-12-06T18:14:14.000Z,100274
2018-12-06T18:16:14.000Z,100272
2018-12-06T18:17:59.000Z,100276
2018-12-06T18:19:14.000Z,100269
2018-12-06T18:20:14.000Z,100267
2018-12-06T18:21:59.000Z,100273
2018-12-06T18:23:59.000Z,100268
2018-12-06T18:25:14.000Z,100270
2018-12-06T18:27:14.000Z,100268
2018-12-06T18:29:14.000Z,100270
2018-12-06T18:31:14.000Z,100281
2018-12-06T18:32:14.000Z,100268
2018-12-06T18:34:14.000Z,100276
2018-12-06T18:35:14.000Z,100275
2018-12-06T18:37:13.000Z,100278
2018-12-06T18:39:13.000Z,100286
2018-12-06T18:41:13.000Z,100282
2018-12-06T18:42:58.000Z,100283
2018-12-06T18:44:13.000Z,100281
2018-12-06T18:45:13.000Z,100275
2018-12-06T18:47:13.000Z,100289
2018-12-06T18:48:13.000Z,100282
2018-12-06T18:50:13.000Z,100282
2018-12-06T18:52:13.000Z,100287
2018-12-06T18:53:13.000Z,100283
2018-12-06T18:54:13.000Z,100281
2018-12-06T18:55:43.000Z,100293
2018-12-06T18:57:13.000Z,100283
2018-12-06T18:59:13.000Z,100281
2018-12-06T19:00:13.000Z,100283
2018-12-06T19:02:14.000Z,100281
2018-12-06T19:04:13.000Z,100286
2018-12-06T19:05:13.000Z,100283
2018-12-06T19:07:13.000Z,100290
2018-12-06T19:08:13.000Z,100292
2018-12-06T19:09:58.000Z,100284
2018-12-06T19:11:13.000Z,100286
2018-12-06T19:12:13.000Z,100282
2018-12-06T19:14:13.000Z,100282
2018-12-06T19:16:13.000Z,100286
2018-12-06T19:17:58.000Z,100277
2018-12-06T19:19:13.000Z,100281
2018-12-06T19:20:13.000Z,100280
2018-12-06T19:22:13.000Z,100281
2018-12-06T19:23:13.000Z,100289
2018-12-06T19:25:13.000Z,100292
2018-12-06T19:26:13.000Z,100290
2018-12-06T19:28:13.000Z,100283
2018-12-06T19:30:13.000Z,100287
2018-12-06T19:31:13.000Z,100283
2018-12-06T19:32:59.000Z,100285
2018-12-06T19:35:13.000Z,100283
2018-12-06T19:36:13.000Z,100286
2018-12-06T19:37:13.000Z,100287
2018-12-06T19:38:13.000Z,100286
2018-12-06T19:40:14.000Z,100284
2018-12-06T19:42:14.000Z,100276
2018-12-06T19:43:14.000Z,100274
2018-12-06T19:44:59.000Z,100276
2018-12-06T19:46:14.000Z,100276
2018-12-06T19:48:14.000Z,100282
2018-12-06T19:50:14.000Z,100270
2018-12-06T19:52:14.000Z,100265
2018-12-06T19:53:14.000Z,100266
2018-12-06T19:55:14.000Z,100269
2018-12-06T19:56:59.000Z,100276
2018-12-06T19:58:14.000Z,100269
2018-12-06T19:59:14.000Z,100272
2018-12-06T20:00:14.000Z,100274
2018-12-06T20:02:14.000Z,100266
2018-12-06T20:03:14.000Z,100272
2018-12-06T20:05:14.000Z,100273
2018-12-06T20:06:59.000Z,100281
2018-12-06T20:08:14.000Z,100281
2018-12-06T20:09:14.000Z,100281
2018-12-06T20:10:14.000Z,100276
2018-12-06T20:12:14.000Z,100285
2018-12-06T20:14:14.000Z,100278
2018-12-06T20:16:14.000Z,100270
2018-12-06T20:18:14.000Z,100270
2018-12-06T20:20:14.000Z,100263
2018-12-06T20:22:14.000Z,100269
2018-12-06T20:23:14.000Z,100261
2018-12-06T20:24:14.000Z,100259
2018-12-06T20:26:14.000Z,100262
2018-12-06T20:27:14.000Z,100257
2018-12-06T20:29:14.000Z,100258
2018-12-06T20:31:14.000Z,100257
2018-12-06T20:32:59.000Z,100244
2018-12-06T20:34:14.000Z,100243
2018-12-06T20:35:14.000Z,100242
2018-12-06T20:37:14.000Z,100245
2018-12-06T20:39:14.000Z,100232
2018-12-06T20:40:14.000Z,100239
2018-12-06T20:42:14.000Z,100237
2018-12-06T20:44:14.000Z,100237
2018-12-06T20:45:14.000Z,100236
2018-12-06T20:47:14.000Z,100237
2018-12-06T20:49:14.000Z,100233
2018-12-06T20:50:14.000Z,100236
2018-12-06T20:52:14.000Z,100233
2018-12-06T20:53:14.000Z,100230
2018-12-06T20:55:14.000Z,100235
2018-12-06T20:56:14.000Z,100239
2018-12-06T20:58:14.000Z,100229
2018-12-06T21:00:14.000Z,100230
2018-12-06T21:01:59.000Z,100233
2018-12-06T21:02:59.000Z,100236
2018-12-06T21:04:14.000Z,100233
2018-12-06T21:05:14.000Z,100239
2018-12-06T21:06:14.000Z,100237
2018-12-06T21:08:14.000Z,100234
2018-12-06T21:09:14.000Z,100232
2018-12-06T21:10:14.000Z,100232
2018-12-06T21:12:14.000Z,100229
2018-12-06T21:14:14.000Z,100230
2018-12-06T21:16:14.000Z,100232
2018-12-06T21:17:14.000Z,100232
2018-12-06T21:18:59.000Z,100227
2018-12-06T21:20:14.000Z,100218
2018-12-06T21:21:59.000Z,100221
2018-12-06T21:23:14.000Z,100210
2018-12-06T21:25:14.000Z,100210
2018-12-06T21:26:59.000Z,100207
2018-12-06T21:28:14.000Z,100210